sensor_id;sensor_type;location;lat;lon;timestamp;P1;durP1;ratioP1;P2;durP2;ratioP2
52724;SDS011;38621;52.830;6.914;2023-07-30T00:01:58;6.40;;;3.00;;
52724;SDS011;38621;52.830;6.914;2023-07-30T00:04:24;5.97;;;2.88;;
52724;SDS011;38621;52.830;6.914;2023-07-30T00:06:50;5.53;;;2.40;;
52724;SDS011;38621;52.830;6.914;2023-07-30T00:09:16;7.32;;;2.80;;
52724;SDS011;38621;52.830;6.914;2023-07-30T00:11:41;5.80;;;3.17;;
52724;SDS011;38621;52.830;6.914;2023-07-30T00:14:07;6.65;;;2.85;;
52724;SDS011;38621;52.830;6.914;2023-07-30T00:16:33;6.00;;;3.00;;
52724;SDS011;38621;52.830;6.914;2023-07-30T00:18:58;6.35;;;3.10;;
52724;SDS011;38621;52.830;6.914;2023-07-30T00:21:24;6.13;;;2.83;;
52724;SDS011;38621;52.830;6.914;2023-07-30T00:23:50;6.93;;;2.70;;
52724;SDS011;38621;52.830;6.914;2023-07-30T00:26:15;4.85;;;2.80;;
52724;SDS011;38621;52.830;6.914;2023-07-30T00:28:41;5.43;;;2.88;;
52724;SDS011;38621;52.830;6.914;2023-07-30T00:31:07;5.80;;;2.45;;
52724;SDS011;38621;52.830;6.914;2023-07-30T00:33:32;5.90;;;2.90;;
52724;SDS011;38621;52.830;6.914;2023-07-30T00:35:58;6.55;;;2.70;;
52724;SDS011;38621;52.830;6.914;2023-07-30T00:38:24;6.55;;;2.80;;
52724;SDS011;38621;52.830;6.914;2023-07-30T00:40:50;5.35;;;3.03;;
52724;SDS011;38621;52.830;6.914;2023-07-30T00:43:15;5.43;;;3.05;;
52724;SDS011;38621;52.830;6.914;2023-07-30T00:45:42;5.40;;;3.05;;
52724;SDS011;38621;52.830;6.914;2023-07-30T00:48:10;6.38;;;2.70;;
52724;SDS011;38621;52.830;6.914;2023-07-30T00:50:36;6.28;;;3.30;;
52724;SDS011;38621;52.830;6.914;2023-07-30T00:53:03;6.18;;;3.05;;
52724;SDS011;38621;52.830;6.914;2023-07-30T00:55:29;5.50;;;2.58;;
52724;SDS011;38621;52.830;6.914;2023-07-30T00:57:56;7.45;;;3.03;;
52724;SDS011;38621;52.830;6.914;2023-07-30T01:00:22;5.38;;;2.90;;
52724;SDS011;38621;52.830;6.914;2023-07-30T01:02:50;5.78;;;2.80;;
52724;SDS011;38621;52.830;6.914;2023-07-30T01:05:16;7.95;;;2.88;;
52724;SDS011;38621;52.830;6.914;2023-07-30T01:07:42;4.85;;;2.83;;
52724;SDS011;38621;52.830;6.914;2023-07-30T01:10:08;8.05;;;2.75;;
52724;SDS011;38621;52.830;6.914;2023-07-30T01:12:34;5.68;;;2.83;;
52724;SDS011;38621;52.830;6.914;2023-07-30T01:15:01;5.80;;;2.97;;
52724;SDS011;38621;52.830;6.914;2023-07-30T01:17:29;7.57;;;3.30;;
52724;SDS011;38621;52.830;6.914;2023-07-30T01:19:55;5.72;;;3.05;;
52724;SDS011;38621;52.830;6.914;2023-07-30T01:22:21;6.35;;;2.60;;
52724;SDS011;38621;52.830;6.914;2023-07-30T01:24:47;7.93;;;2.97;;
52724;SDS011;38621;52.830;6.914;2023-07-30T01:27:25;6.32;;;2.60;;
52724;SDS011;38621;52.830;6.914;2023-07-30T01:29:53;8.60;;;2.80;;
52724;SDS011;38621;52.830;6.914;2023-07-30T01:32:25;7.03;;;3.15;;
52724;SDS011;38621;52.830;6.914;2023-07-30T01:34:55;8.05;;;2.50;;
52724;SDS011;38621;52.830;6.914;2023-07-30T01:37:22;8.88;;;3.65;;
52724;SDS011;38621;52.830;6.914;2023-07-30T01:39:49;5.63;;;2.60;;
52724;SDS011;38621;52.830;6.914;2023-07-30T01:42:16;9.82;;;2.97;;
52724;SDS011;38621;52.830;6.914;2023-07-30T01:44:42;8.18;;;2.97;;
52724;SDS011;38621;52.830;6.914;2023-07-30T01:47:08;5.68;;;2.40;;
52724;SDS011;38621;52.830;6.914;2023-07-30T01:49:34;6.18;;;2.47;;
52724;SDS011;38621;52.830;6.914;2023-07-30T01:51:59;8.23;;;2.90;;
52724;SDS011;38621;52.830;6.914;2023-07-30T01:54:25;6.20;;;2.47;;
52724;SDS011;38621;52.830;6.914;2023-07-30T01:56:51;7.70;;;2.22;;
52724;SDS011;38621;52.830;6.914;2023-07-30T01:59:18;9.35;;;2.70;;
52724;SDS011;38621;52.830;6.914;2023-07-30T02:01:43;4.85;;;2.33;;
52724;SDS011;38621;52.830;6.914;2023-07-30T02:04:09;7.35;;;2.60;;
52724;SDS011;38621;52.830;6.914;2023-07-30T02:06:35;4.68;;;2.05;;
52724;SDS011;38621;52.830;6.914;2023-07-30T02:09:01;5.78;;;2.25;;
52724;SDS011;38621;52.830;6.914;2023-07-30T02:11:27;9.52;;;2.90;;
52724;SDS011;38621;52.830;6.914;2023-07-30T02:13:53;6.43;;;2.20;;
52724;SDS011;38621;52.830;6.914;2023-07-30T02:16:19;6.15;;;2.00;;
52724;SDS011;38621;52.830;6.914;2023-07-30T02:18:45;7.13;;;2.22;;
52724;SDS011;38621;52.830;6.914;2023-07-30T02:21:10;5.50;;;2.42;;
52724;SDS011;38621;52.830;6.914;2023-07-30T02:23:36;3.53;;;2.10;;
52724;SDS011;38621;52.830;6.914;2023-07-30T02:26:02;8.05;;;2.60;;
52724;SDS011;38621;52.830;6.914;2023-07-30T02:28:27;6.57;;;2.38;;
52724;SDS011;38621;52.830;6.914;2023-07-30T02:30:53;7.88;;;2.25;;
52724;SDS011;38621;52.830;6.914;2023-07-30T02:33:19;4.75;;;2.00;;
52724;SDS011;38621;52.830;6.914;2023-07-30T02:35:44;5.32;;;2.20;;
52724;SDS011;38621;52.830;6.914;2023-07-30T02:38:10;4.82;;;2.20;;
52724;SDS011;38621;52.830;6.914;2023-07-30T02:40:36;4.13;;;1.92;;
52724;SDS011;38621;52.830;6.914;2023-07-30T02:43:04;5.32;;;1.92;;
52724;SDS011;38621;52.830;6.914;2023-07-30T02:45:30;6.25;;;2.13;;
52724;SDS011;38621;52.830;6.914;2023-07-30T02:47:55;7.85;;;2.55;;
52724;SDS011;38621;52.830;6.914;2023-07-30T02:50:21;7.55;;;2.05;;
52724;SDS011;38621;52.830;6.914;2023-07-30T02:52:47;4.50;;;2.08;;
52724;SDS011;38621;52.830;6.914;2023-07-30T02:55:12;4.35;;;1.77;;
52724;SDS011;38621;52.830;6.914;2023-07-30T02:57:38;5.95;;;2.00;;
52724;SDS011;38621;52.830;6.914;2023-07-30T03:00:04;5.85;;;1.90;;
52724;SDS011;38621;52.830;6.914;2023-07-30T03:02:30;3.78;;;1.90;;
52724;SDS011;38621;52.830;6.914;2023-07-30T03:04:56;6.47;;;2.08;;
52724;SDS011;38621;52.830;6.914;2023-07-30T03:07:22;4.50;;;2.10;;
52724;SDS011;38621;52.830;6.914;2023-07-30T03:09:47;6.75;;;2.25;;
52724;SDS011;38621;52.830;6.914;2023-07-30T03:12:14;7.00;;;2.28;;
52724;SDS011;38621;52.830;6.914;2023-07-30T03:14:39;4.32;;;2.25;;
52724;SDS011;38621;52.830;6.914;2023-07-30T03:17:05;4.78;;;1.98;;
52724;SDS011;38621;52.830;6.914;2023-07-30T03:19:31;5.53;;;1.92;;
52724;SDS011;38621;52.830;6.914;2023-07-30T03:21:57;5.93;;;1.88;;
52724;SDS011;38621;52.830;6.914;2023-07-30T03:24:23;6.07;;;2.08;;
52724;SDS011;38621;52.830;6.914;2023-07-30T03:26:48;5.88;;;2.30;;
52724;SDS011;38621;52.830;6.914;2023-07-30T03:29:14;6.72;;;2.00;;
52724;SDS011;38621;52.830;6.914;2023-07-30T03:31:41;5.50;;;2.00;;
52724;SDS011;38621;52.830;6.914;2023-07-30T03:34:07;5.40;;;2.20;;
52724;SDS011;38621;52.830;6.914;2023-07-30T03:36:32;6.05;;;2.40;;
52724;SDS011;38621;52.830;6.914;2023-07-30T03:38:58;4.90;;;2.40;;
52724;SDS011;38621;52.830;6.914;2023-07-30T03:41:24;6.85;;;2.55;;
52724;SDS011;38621;52.830;6.914;2023-07-30T03:43:50;4.45;;;2.00;;
52724;SDS011;38621;52.830;6.914;2023-07-30T03:46:16;7.10;;;2.45;;
52724;SDS011;38621;52.830;6.914;2023-07-30T03:48:41;6.10;;;2.65;;
52724;SDS011;38621;52.830;6.914;2023-07-30T03:51:07;3.95;;;2.00;;
52724;SDS011;38621;52.830;6.914;2023-07-30T03:53:33;6.57;;;2.85;;
52724;SDS011;38621;52.830;6.914;2023-07-30T03:55:59;6.35;;;3.17;;
52724;SDS011;38621;52.830;6.914;2023-07-30T03:58:25;5.65;;;2.80;;
52724;SDS011;38621;52.830;6.914;2023-07-30T04:00:50;6.20;;;2.35;;
52724;SDS011;38621;52.830;6.914;2023-07-30T04:03:16;8.65;;;2.97;;
52724;SDS011;38621;52.830;6.914;2023-07-30T04:05:42;7.00;;;2.53;;
52724;SDS011;38621;52.830;6.914;2023-07-30T04:08:07;4.18;;;2.28;;
52724;SDS011;38621;52.830;6.914;2023-07-30T04:10:33;8.07;;;2.85;;
52724;SDS011;38621;52.830;6.914;2023-07-30T04:12:59;6.90;;;2.95;;
52724;SDS011;38621;52.830;6.914;2023-07-30T04:15:24;6.80;;;2.75;;
52724;SDS011;38621;52.830;6.914;2023-07-30T04:17:50;5.05;;;2.47;;
52724;SDS011;38621;52.830;6.914;2023-07-30T04:20:16;5.60;;;2.67;;
52724;SDS011;38621;52.830;6.914;2023-07-30T04:22:43;7.88;;;3.10;;
52724;SDS011;38621;52.830;6.914;2023-07-30T04:25:09;6.20;;;2.35;;
52724;SDS011;38621;52.830;6.914;2023-07-30T04:27:38;9.95;;;3.20;;
52724;SDS011;38621;52.830;6.914;2023-07-30T04:30:06;6.82;;;2.85;;
52724;SDS011;38621;52.830;6.914;2023-07-30T04:32:33;6.07;;;3.00;;
52724;SDS011;38621;52.830;6.914;2023-07-30T04:34:59;6.57;;;2.75;;
52724;SDS011;38621;52.830;6.914;2023-07-30T04:37:25;6.32;;;2.75;;
52724;SDS011;38621;52.830;6.914;2023-07-30T04:39:51;6.47;;;2.63;;
52724;SDS011;38621;52.830;6.914;2023-07-30T04:42:16;6.38;;;2.72;;
52724;SDS011;38621;52.830;6.914;2023-07-30T04:44:42;8.25;;;2.85;;
52724;SDS011;38621;52.830;6.914;2023-07-30T04:47:08;8.00;;;3.28;;
52724;SDS011;38621;52.830;6.914;2023-07-30T04:49:34;7.00;;;2.65;;
52724;SDS011;38621;52.830;6.914;2023-07-30T04:52:02;5.75;;;2.80;;
52724;SDS011;38621;52.830;6.914;2023-07-30T04:54:28;7.03;;;2.70;;
52724;SDS011;38621;52.830;6.914;2023-07-30T04:56:53;8.32;;;3.20;;
52724;SDS011;38621;52.830;6.914;2023-07-30T04:59:19;8.50;;;2.78;;
52724;SDS011;38621;52.830;6.914;2023-07-30T05:01:45;7.10;;;2.95;;
52724;SDS011;38621;52.830;6.914;2023-07-30T05:04:11;7.95;;;3.03;;
52724;SDS011;38621;52.830;6.914;2023-07-30T05:06:37;6.63;;;2.90;;
52724;SDS011;38621;52.830;6.914;2023-07-30T05:09:02;8.90;;;2.85;;
52724;SDS011;38621;52.830;6.914;2023-07-30T05:11:28;6.78;;;2.80;;
52724;SDS011;38621;52.830;6.914;2023-07-30T05:13:54;7.28;;;2.80;;
52724;SDS011;38621;52.830;6.914;2023-07-30T05:16:20;7.10;;;3.10;;
52724;SDS011;38621;52.830;6.914;2023-07-30T05:18:45;6.65;;;3.05;;
52724;SDS011;38621;52.830;6.914;2023-07-30T05:21:11;6.95;;;3.00;;
52724;SDS011;38621;52.830;6.914;2023-07-30T05:23:37;6.30;;;2.50;;
52724;SDS011;38621;52.830;6.914;2023-07-30T05:26:03;7.78;;;3.05;;
52724;SDS011;38621;52.830;6.914;2023-07-30T05:28:28;7.75;;;3.30;;
52724;SDS011;38621;52.830;6.914;2023-07-30T05:30:54;7.30;;;3.60;;
52724;SDS011;38621;52.830;6.914;2023-07-30T05:33:20;8.43;;;3.25;;
52724;SDS011;38621;52.830;6.914;2023-07-30T05:35:45;7.63;;;2.83;;
52724;SDS011;38621;52.830;6.914;2023-07-30T05:38:13;5.40;;;3.10;;
52724;SDS011;38621;52.830;6.914;2023-07-30T05:40:38;7.05;;;3.00;;
52724;SDS011;38621;52.830;6.914;2023-07-30T05:43:04;8.93;;;3.15;;
52724;SDS011;38621;52.830;6.914;2023-07-30T05:45:30;7.32;;;3.38;;
52724;SDS011;38621;52.830;6.914;2023-07-30T05:47:55;6.70;;;2.85;;
52724;SDS011;38621;52.830;6.914;2023-07-30T05:50:21;7.78;;;3.28;;
52724;SDS011;38621;52.830;6.914;2023-07-30T05:52:46;9.88;;;3.00;;
52724;SDS011;38621;52.830;6.914;2023-07-30T05:55:12;9.27;;;3.25;;
52724;SDS011;38621;52.830;6.914;2023-07-30T05:57:38;9.30;;;3.60;;
52724;SDS011;38621;52.830;6.914;2023-07-30T06:00:04;7.10;;;3.35;;
52724;SDS011;38621;52.830;6.914;2023-07-30T06:02:30;11.32;;;3.78;;
52724;SDS011;38621;52.830;6.914;2023-07-30T06:04:55;9.05;;;3.58;;
52724;SDS011;38621;52.830;6.914;2023-07-30T06:07:21;6.43;;;3.40;;
52724;SDS011;38621;52.830;6.914;2023-07-30T06:09:47;9.27;;;3.40;;
52724;SDS011;38621;52.830;6.914;2023-07-30T06:12:12;7.68;;;3.22;;
52724;SDS011;38621;52.830;6.914;2023-07-30T06:14:38;11.23;;;3.40;;
52724;SDS011;38621;52.830;6.914;2023-07-30T06:17:04;11.75;;;3.60;;
52724;SDS011;38621;52.830;6.914;2023-07-30T06:19:29;9.85;;;3.40;;
52724;SDS011;38621;52.830;6.914;2023-07-30T06:21:55;7.57;;;3.38;;
52724;SDS011;38621;52.830;6.914;2023-07-30T06:24:21;9.45;;;3.72;;
52724;SDS011;38621;52.830;6.914;2023-07-30T06:26:47;6.38;;;3.30;;
52724;SDS011;38621;52.830;6.914;2023-07-30T06:29:12;10.35;;;3.70;;
52724;SDS011;38621;52.830;6.914;2023-07-30T06:31:38;10.32;;;3.50;;
52724;SDS011;38621;52.830;6.914;2023-07-30T06:34:04;12.05;;;4.13;;
52724;SDS011;38621;52.830;6.914;2023-07-30T06:36:29;8.45;;;3.45;;
52724;SDS011;38621;52.830;6.914;2023-07-30T06:38:55;8.95;;;3.50;;
52724;SDS011;38621;52.830;6.914;2023-07-30T06:41:21;10.40;;;3.80;;
52724;SDS011;38621;52.830;6.914;2023-07-30T06:43:46;9.32;;;3.83;;
52724;SDS011;38621;52.830;6.914;2023-07-30T06:46:12;9.75;;;3.97;;
52724;SDS011;38621;52.830;6.914;2023-07-30T06:48:38;8.98;;;3.97;;
52724;SDS011;38621;52.830;6.914;2023-07-30T06:51:07;8.98;;;3.70;;
52724;SDS011;38621;52.830;6.914;2023-07-30T06:53:36;8.77;;;4.13;;
52724;SDS011;38621;52.830;6.914;2023-07-30T06:56:01;9.02;;;3.70;;
52724;SDS011;38621;52.830;6.914;2023-07-30T06:58:28;7.43;;;3.30;;
52724;SDS011;38621;52.830;6.914;2023-07-30T07:00:54;9.00;;;3.63;;
52724;SDS011;38621;52.830;6.914;2023-07-30T07:03:19;11.25;;;4.13;;
52724;SDS011;38621;52.830;6.914;2023-07-30T07:05:45;10.88;;;4.10;;
52724;SDS011;38621;52.830;6.914;2023-07-30T07:08:21;11.30;;;3.42;;
52724;SDS011;38621;52.830;6.914;2023-07-30T07:10:47;13.50;;;4.53;;
52724;SDS011;38621;52.830;6.914;2023-07-30T07:13:13;8.07;;;3.60;;
52724;SDS011;38621;52.830;6.914;2023-07-30T07:15:42;10.18;;;3.67;;
52724;SDS011;38621;52.830;6.914;2023-07-30T07:18:08;10.50;;;3.67;;
52724;SDS011;38621;52.830;6.914;2023-07-30T07:20:35;7.93;;;3.58;;
52724;SDS011;38621;52.830;6.914;2023-07-30T07:23:01;8.13;;;3.65;;
52724;SDS011;38621;52.830;6.914;2023-07-30T07:25:26;7.30;;;3.30;;
52724;SDS011;38621;52.830;6.914;2023-07-30T07:27:52;7.47;;;3.25;;
52724;SDS011;38621;52.830;6.914;2023-07-30T07:30:18;6.80;;;3.28;;
52724;SDS011;38621;52.830;6.914;2023-07-30T07:32:43;7.93;;;3.20;;
52724;SDS011;38621;52.830;6.914;2023-07-30T07:35:09;8.25;;;3.20;;
52724;SDS011;38621;52.830;6.914;2023-07-30T07:37:35;5.95;;;2.75;;
52724;SDS011;38621;52.830;6.914;2023-07-30T07:40:01;9.95;;;3.50;;
52724;SDS011;38621;52.830;6.914;2023-07-30T07:42:28;8.77;;;3.20;;
52724;SDS011;38621;52.830;6.914;2023-07-30T07:44:55;7.35;;;3.33;;
52724;SDS011;38621;52.830;6.914;2023-07-30T07:47:21;9.43;;;3.17;;
52724;SDS011;38621;52.830;6.914;2023-07-30T07:49:47;9.80;;;3.38;;
52724;SDS011;38621;52.830;6.914;2023-07-30T07:52:13;7.63;;;3.00;;
52724;SDS011;38621;52.830;6.914;2023-07-30T07:54:40;10.65;;;3.38;;
52724;SDS011;38621;52.830;6.914;2023-07-30T07:57:07;8.38;;;3.50;;
52724;SDS011;38621;52.830;6.914;2023-07-30T07:59:32;9.55;;;3.35;;
52724;SDS011;38621;52.830;6.914;2023-07-30T08:01:58;7.65;;;3.45;;
52724;SDS011;38621;52.830;6.914;2023-07-30T08:04:24;9.35;;;3.53;;
52724;SDS011;38621;52.830;6.914;2023-07-30T08:06:49;8.02;;;3.45;;
52724;SDS011;38621;52.830;6.914;2023-07-30T08:09:15;9.70;;;3.20;;
52724;SDS011;38621;52.830;6.914;2023-07-30T08:11:41;8.07;;;3.55;;
52724;SDS011;38621;52.830;6.914;2023-07-30T08:14:06;7.85;;;3.47;;
52724;SDS011;38621;52.830;6.914;2023-07-30T08:16:32;6.13;;;3.05;;
52724;SDS011;38621;52.830;6.914;2023-07-30T08:18:58;8.43;;;3.35;;
52724;SDS011;38621;52.830;6.914;2023-07-30T08:21:24;8.68;;;3.25;;
52724;SDS011;38621;52.830;6.914;2023-07-30T08:23:50;7.57;;;3.15;;
52724;SDS011;38621;52.830;6.914;2023-07-30T08:26:16;9.00;;;3.45;;
52724;SDS011;38621;52.830;6.914;2023-07-30T08:28:41;7.70;;;3.40;;
52724;SDS011;38621;52.830;6.914;2023-07-30T08:31:07;9.40;;;3.47;;
52724;SDS011;38621;52.830;6.914;2023-07-30T08:33:33;6.88;;;2.97;;
52724;SDS011;38621;52.830;6.914;2023-07-30T08:35:58;7.32;;;2.88;;
52724;SDS011;38621;52.830;6.914;2023-07-30T08:38:25;7.13;;;2.75;;
52724;SDS011;38621;52.830;6.914;2023-07-30T08:40:51;6.32;;;2.35;;
52724;SDS011;38621;52.830;6.914;2023-07-30T08:43:20;6.78;;;2.67;;
52724;SDS011;38621;52.830;6.914;2023-07-30T08:45:45;5.13;;;2.67;;
52724;SDS011;38621;52.830;6.914;2023-07-30T08:48:11;6.28;;;2.50;;
52724;SDS011;38621;52.830;6.914;2023-07-30T08:50:37;7.03;;;2.85;;
52724;SDS011;38621;52.830;6.914;2023-07-30T08:53:04;7.25;;;2.38;;
52724;SDS011;38621;52.830;6.914;2023-07-30T08:55:32;5.40;;;2.10;;
52724;SDS011;38621;52.830;6.914;2023-07-30T08:58:02;7.15;;;3.03;;
52724;SDS011;38621;52.830;6.914;2023-07-30T09:00:34;8.15;;;2.45;;
52724;SDS011;38621;52.830;6.914;2023-07-30T09:03:03;10.77;;;3.25;;
52724;SDS011;38621;52.830;6.914;2023-07-30T09:05:29;6.03;;;2.60;;
52724;SDS011;38621;52.830;6.914;2023-07-30T09:07:56;5.72;;;2.70;;
52724;SDS011;38621;52.830;6.914;2023-07-30T09:10:22;7.20;;;2.83;;
52724;SDS011;38621;52.830;6.914;2023-07-30T09:12:55;6.38;;;2.65;;
52724;SDS011;38621;52.830;6.914;2023-07-30T09:15:37;7.63;;;2.78;;
52724;SDS011;38621;52.830;6.914;2023-07-30T09:18:06;6.32;;;3.20;;
52724;SDS011;38621;52.830;6.914;2023-07-30T09:20:40;7.18;;;2.72;;
52724;SDS011;38621;52.830;6.914;2023-07-30T09:23:07;8.23;;;3.95;;
52724;SDS011;38621;52.830;6.914;2023-07-30T09:25:34;8.32;;;4.25;;
52724;SDS011;38621;52.830;6.914;2023-07-30T09:28:00;6.15;;;3.83;;
52724;SDS011;38621;52.830;6.914;2023-07-30T09:30:26;6.93;;;3.70;;
52724;SDS011;38621;52.830;6.914;2023-07-30T09:32:53;8.82;;;3.78;;
52724;SDS011;38621;52.830;6.914;2023-07-30T09:35:21;7.00;;;3.42;;
52724;SDS011;38621;52.830;6.914;2023-07-30T09:37:50;8.85;;;3.63;;
52724;SDS011;38621;52.830;6.914;2023-07-30T09:40:30;8.82;;;3.20;;
52724;SDS011;38621;52.830;6.914;2023-07-30T09:42:57;5.78;;;3.20;;
52724;SDS011;38621;52.830;6.914;2023-07-30T09:45:23;7.13;;;3.40;;
52724;SDS011;38621;52.830;6.914;2023-07-30T09:47:53;7.80;;;3.63;;
52724;SDS011;38621;52.830;6.914;2023-07-30T09:50:21;8.38;;;3.60;;
52724;SDS011;38621;52.830;6.914;2023-07-30T09:52:47;7.50;;;3.33;;
52724;SDS011;38621;52.830;6.914;2023-07-30T09:55:15;5.97;;;2.70;;
52724;SDS011;38621;52.830;6.914;2023-07-30T09:57:40;7.43;;;3.00;;
52724;SDS011;38621;52.830;6.914;2023-07-30T10:00:06;6.18;;;2.65;;
52724;SDS011;38621;52.830;6.914;2023-07-30T10:02:37;6.53;;;2.72;;
52724;SDS011;38621;52.830;6.914;2023-07-30T10:05:14;3.83;;;2.40;;
52724;SDS011;38621;52.830;6.914;2023-07-30T10:07:57;6.50;;;3.03;;
52724;SDS011;38621;52.830;6.914;2023-07-30T10:10:28;8.10;;;3.33;;
52724;SDS011;38621;52.830;6.914;2023-07-30T10:12:55;6.30;;;2.95;;
52724;SDS011;38621;52.830;6.914;2023-07-30T10:15:24;5.43;;;2.85;;
52724;SDS011;38621;52.830;6.914;2023-07-30T10:17:51;7.65;;;2.10;;
52724;SDS011;38621;52.830;6.914;2023-07-30T10:22:53;2.92;;;1.70;;
52724;SDS011;38621;52.830;6.914;2023-07-30T10:25:30;3.50;;;1.48;;
52724;SDS011;38621;52.830;6.914;2023-07-30T10:30:58;2.67;;;1.20;;
52724;SDS011;38621;52.830;6.914;2023-07-30T10:33:46;5.75;;;1.60;;
52724;SDS011;38621;52.830;6.914;2023-07-30T10:36:16;3.30;;;1.40;;
52724;SDS011;38621;52.830;6.914;2023-07-30T10:38:43;5.28;;;1.50;;
52724;SDS011;38621;52.830;6.914;2023-07-30T10:41:12;5.38;;;1.83;;
52724;SDS011;38621;52.830;6.914;2023-07-30T10:43:49;4.55;;;1.80;;
52724;SDS011;38621;52.830;6.914;2023-07-30T10:46:18;5.82;;;2.17;;
52724;SDS011;38621;52.830;6.914;2023-07-30T10:48:45;5.78;;;2.72;;
52724;SDS011;38621;52.830;6.914;2023-07-30T10:51:13;5.63;;;1.73;;
52724;SDS011;38621;52.830;6.914;2023-07-30T10:53:43;5.57;;;2.30;;
52724;SDS011;38621;52.830;6.914;2023-07-30T10:56:13;4.47;;;2.35;;
52724;SDS011;38621;52.830;6.914;2023-07-30T10:58:41;5.28;;;2.10;;
52724;SDS011;38621;52.830;6.914;2023-07-30T11:01:08;7.18;;;2.15;;
52724;SDS011;38621;52.830;6.914;2023-07-30T11:03:34;4.40;;;2.05;;
52724;SDS011;38621;52.830;6.914;2023-07-30T11:06:01;5.35;;;2.22;;
52724;SDS011;38621;52.830;6.914;2023-07-30T11:08:38;3.50;;;2.10;;
52724;SDS011;38621;52.830;6.914;2023-07-30T11:11:06;4.05;;;2.20;;
52724;SDS011;38621;52.830;6.914;2023-07-30T11:13:39;6.53;;;2.72;;
52724;SDS011;38621;52.830;6.914;2023-07-30T11:16:07;7.05;;;2.88;;
52724;SDS011;38621;52.830;6.914;2023-07-30T11:18:34;5.00;;;2.35;;
52724;SDS011;38621;52.830;6.914;2023-07-30T11:21:07;5.20;;;2.83;;
52724;SDS011;38621;52.830;6.914;2023-07-30T11:23:37;6.88;;;2.33;;
52724;SDS011;38621;52.830;6.914;2023-07-30T11:26:06;5.95;;;2.40;;
52724;SDS011;38621;52.830;6.914;2023-07-30T11:31:06;4.43;;;1.98;;
52724;SDS011;38621;52.830;6.914;2023-07-30T11:33:33;5.80;;;2.20;;
52724;SDS011;38621;52.830;6.914;2023-07-30T11:36:02;7.35;;;2.38;;
52724;SDS011;38621;52.830;6.914;2023-07-30T11:38:28;4.95;;;2.05;;
52724;SDS011;38621;52.830;6.914;2023-07-30T11:40:56;5.32;;;1.55;;
52724;SDS011;38621;52.830;6.914;2023-07-30T11:43:23;5.00;;;1.70;;
52724;SDS011;38621;52.830;6.914;2023-07-30T11:45:49;4.55;;;1.40;;
52724;SDS011;38621;52.830;6.914;2023-07-30T11:48:30;2.85;;;1.27;;
52724;SDS011;38621;52.830;6.914;2023-07-30T11:50:56;5.00;;;1.30;;
52724;SDS011;38621;52.830;6.914;2023-07-30T11:53:22;3.00;;;1.10;;
52724;SDS011;38621;52.830;6.914;2023-07-30T11:56:14;3.45;;;1.40;;
52724;SDS011;38621;52.830;6.914;2023-07-30T11:59:02;4.78;;;1.50;;
52724;SDS011;38621;52.830;6.914;2023-07-30T12:01:32;3.92;;;1.10;;
52724;SDS011;38621;52.830;6.914;2023-07-30T12:03:59;3.85;;;1.27;;
52724;SDS011;38621;52.830;6.914;2023-07-30T12:06:42;3.28;;;1.35;;
52724;SDS011;38621;52.830;6.914;2023-07-30T12:09:10;4.15;;;1.38;;
52724;SDS011;38621;52.830;6.914;2023-07-30T12:12:00;3.63;;;1.20;;
52724;SDS011;38621;52.830;6.914;2023-07-30T12:14:43;5.00;;;1.15;;
52724;SDS011;38621;52.830;6.914;2023-07-30T12:17:15;5.43;;;1.45;;
52724;SDS011;38621;52.830;6.914;2023-07-30T12:19:41;3.33;;;1.10;;
52724;SDS011;38621;52.830;6.914;2023-07-30T12:22:07;4.55;;;1.38;;
52724;SDS011;38621;52.830;6.914;2023-07-30T12:24:32;6.50;;;1.10;;
52724;SDS011;38621;52.830;6.914;2023-07-30T12:26:58;4.25;;;1.10;;
52724;SDS011;38621;52.830;6.914;2023-07-30T12:29:24;4.15;;;1.10;;
52724;SDS011;38621;52.830;6.914;2023-07-30T12:31:50;2.58;;;0.95;;
52724;SDS011;38621;52.830;6.914;2023-07-30T12:34:21;3.50;;;1.30;;
52724;SDS011;38621;52.830;6.914;2023-07-30T12:36:48;3.95;;;1.20;;
52724;SDS011;38621;52.830;6.914;2023-07-30T12:39:13;5.47;;;1.23;;
52724;SDS011;38621;52.830;6.914;2023-07-30T12:41:39;3.33;;;1.20;;
52724;SDS011;38621;52.830;6.914;2023-07-30T12:44:05;4.65;;;1.00;;
52724;SDS011;38621;52.830;6.914;2023-07-30T12:46:31;6.35;;;1.33;;
52724;SDS011;38621;52.830;6.914;2023-07-30T12:48:58;3.00;;;1.15;;
52724;SDS011;38621;52.830;6.914;2023-07-30T12:51:30;4.63;;;1.38;;
52724;SDS011;38621;52.830;6.914;2023-07-30T12:53:57;3.85;;;1.08;;
52724;SDS011;38621;52.830;6.914;2023-07-30T12:56:23;5.10;;;1.05;;
52724;SDS011;38621;52.830;6.914;2023-07-30T12:58:48;2.83;;;1.13;;
52724;SDS011;38621;52.830;6.914;2023-07-30T13:01:14;2.40;;;0.80;;
52724;SDS011;38621;52.830;6.914;2023-07-30T13:03:40;3.92;;;1.17;;
52724;SDS011;38621;52.830;6.914;2023-07-30T13:06:10;3.65;;;0.90;;
52724;SDS011;38621;52.830;6.914;2023-07-30T13:08:36;3.83;;;1.02;;
52724;SDS011;38621;52.830;6.914;2023-07-30T13:11:03;2.80;;;0.75;;
52724;SDS011;38621;52.830;6.914;2023-07-30T13:13:29;2.50;;;0.90;;
52724;SDS011;38621;52.830;6.914;2023-07-30T13:15:54;4.32;;;0.90;;
52724;SDS011;38621;52.830;6.914;2023-07-30T13:18:23;3.83;;;0.93;;
52724;SDS011;38621;52.830;6.914;2023-07-30T13:20:49;2.90;;;0.90;;
52724;SDS011;38621;52.830;6.914;2023-07-30T13:23:15;2.80;;;1.02;;
52724;SDS011;38621;52.830;6.914;2023-07-30T13:25:41;4.47;;;1.10;;
52724;SDS011;38621;52.830;6.914;2023-07-30T13:28:07;2.40;;;0.88;;
52724;SDS011;38621;52.830;6.914;2023-07-30T13:30:32;2.60;;;0.70;;
52724;SDS011;38621;52.830;6.914;2023-07-30T13:32:58;2.72;;;1.00;;
52724;SDS011;38621;52.830;6.914;2023-07-30T13:35:24;2.58;;;0.90;;
52724;SDS011;38621;52.830;6.914;2023-07-30T13:37:49;2.45;;;0.95;;
52724;SDS011;38621;52.830;6.914;2023-07-30T13:40:15;2.92;;;1.00;;
52724;SDS011;38621;52.830;6.914;2023-07-30T13:42:41;3.00;;;0.85;;
52724;SDS011;38621;52.830;6.914;2023-07-30T13:45:06;2.88;;;0.82;;
52724;SDS011;38621;52.830;6.914;2023-07-30T13:47:32;2.42;;;0.82;;
52724;SDS011;38621;52.830;6.914;2023-07-30T13:49:58;2.75;;;0.85;;
52724;SDS011;38621;52.830;6.914;2023-07-30T13:52:24;4.57;;;1.08;;
52724;SDS011;38621;52.830;6.914;2023-07-30T13:54:49;3.42;;;1.00;;
52724;SDS011;38621;52.830;6.914;2023-07-30T13:57:24;3.83;;;1.00;;
52724;SDS011;38621;52.830;6.914;2023-07-30T13:59:51;2.35;;;1.00;;
52724;SDS011;38621;52.830;6.914;2023-07-30T14:02:17;3.03;;;1.08;;
52724;SDS011;38621;52.830;6.914;2023-07-30T14:04:43;3.75;;;0.90;;
52724;SDS011;38621;52.830;6.914;2023-07-30T14:07:08;3.13;;;1.10;;
52724;SDS011;38621;52.830;6.914;2023-07-30T14:09:34;2.72;;;1.13;;
52724;SDS011;38621;52.830;6.914;2023-07-30T14:12:02;3.22;;;1.10;;
52724;SDS011;38621;52.830;6.914;2023-07-30T14:14:28;2.78;;;0.90;;
52724;SDS011;38621;52.830;6.914;2023-07-30T14:16:54;3.30;;;1.15;;
52724;SDS011;38621;52.830;6.914;2023-07-30T14:19:20;5.35;;;1.17;;
52724;SDS011;38621;52.830;6.914;2023-07-30T14:21:46;4.07;;;1.35;;
52724;SDS011;38621;52.830;6.914;2023-07-30T14:24:12;2.80;;;1.00;;
52724;SDS011;38621;52.830;6.914;2023-07-30T14:26:37;4.82;;;1.05;;
52724;SDS011;38621;52.830;6.914;2023-07-30T14:29:04;4.20;;;1.10;;
52724;SDS011;38621;52.830;6.914;2023-07-30T14:31:29;2.72;;;0.93;;
52724;SDS011;38621;52.830;6.914;2023-07-30T14:33:55;3.50;;;1.00;;
52724;SDS011;38621;52.830;6.914;2023-07-30T14:36:21;5.47;;;1.10;;
52724;SDS011;38621;52.830;6.914;2023-07-30T14:38:47;4.45;;;1.10;;
52724;SDS011;38621;52.830;6.914;2023-07-30T14:41:12;2.55;;;0.80;;
52724;SDS011;38621;52.830;6.914;2023-07-30T14:43:38;5.85;;;1.10;;
52724;SDS011;38621;52.830;6.914;2023-07-30T14:46:03;3.25;;;0.80;;
52724;SDS011;38621;52.830;6.914;2023-07-30T14:48:29;2.92;;;0.82;;
52724;SDS011;38621;52.830;6.914;2023-07-30T14:50:55;2.15;;;0.85;;
52724;SDS011;38621;52.830;6.914;2023-07-30T14:53:20;1.35;;;0.70;;
52724;SDS011;38621;52.830;6.914;2023-07-30T14:55:46;3.97;;;0.80;;